Time;durP1;ratioP1;P1;durP2;ratioP2;P2;SDS_P1;SDS_P2;PMS_P1;PMS_P2;Temp;Humidity;BMP_temperature;BMP_pressure;BME280_temperature;BME280_humidity;BME280_pressure;Samples;Min_cycle;Max_cycle;Signal;HPM_P1;HPM_P2
2021/11/26 00:01:58;;;;;;;1999.90;999.90;;;;;;;;;;4994962;28;20047;-94
2021/11/26 00:04:26;;;;;;;1999.90;999.90;;;;;;;;;;4995883;28;20173;-92
2021/11/26 00:06:54;;;;;;;1999.90;999.90;;;;;;;;;;4999558;28;20038;-93
2021/11/26 00:09:24;;;;;;;1999.90;999.90;;;;;;;;;;4999106;28;20069;-92
2021/11/26 00:11:51;;;;;;;1999.90;999.90;;;;;;;;;;4999323;28;20060;-94
2021/11/26 00:14:21;;;;;;;1999.90;999.90;;;;;;;;;;4999225;28;20033;-92
2021/11/26 00:16:54;;;;;;;1999.90;999.90;;;;;;;;;;4980717;28;20033;-91
2021/11/26 00:19:21;;;;;;;1999.90;999.90;;;;;;;;;;4984682;28;20124;-92
2021/11/26 00:21:58;;;;;;;1999.90;999.90;;;;;;;;;;4980671;28;20034;-92
2021/11/26 00:24:27;;;;;;;1999.90;999.90;;;;;;;;;;4997208;28;20045;-93
2021/11/26 00:26:53;;;;;;;1999.90;999.90;;;;;;;;;;4986811;28;20076;-92
2021/11/26 00:29:23;;;;;;;1999.90;999.90;;;;;;;;;;4993183;28;20046;-92
2021/11/26 00:31:51;;;;;;;1999.90;999.90;;;;;;;;;;4998278;28;20036;-92
2021/11/26 00:34:18;;;;;;;1999.90;999.90;;;;;;;;;;4982179;28;20041;-92
2021/11/26 00:36:44;;;;;;;1999.90;999.90;;;;;;;;;;4982422;28;20037;-91
2021/11/26 00:39:12;;;;;;;1999.90;999.90;;;;;;;;;;4982732;28;20119;-95
2021/11/26 00:41:41;;;;;;;1999.90;999.90;;;;;;;;;;4983025;28;20026;-92
2021/11/26 00:44:09;;;;;;;1999.90;999.90;;;;;;;;;;4998575;28;20033;-92
2021/11/26 00:46:35;;;;;;;1999.90;999.90;;;;;;;;;;4998795;28;20406;-92
2021/11/26 00:49:01;;;;;;;1999.90;999.90;;;;;;;;;;4985642;28;20132;-93
2021/11/26 00:51:30;;;;;;;1999.90;999.90;;;;;;;;;;4986325;28;20037;-93
2021/11/26 00:53:59;;;;;;;1999.90;999.90;;;;;;;;;;5003066;28;20033;-93
2021/11/26 00:56:28;;;;;;;1999.90;999.90;;;;;;;;;;5002564;28;20103;-92
2021/11/26 00:58:54;;;;;;;1999.90;999.90;;;;;;;;;;5001835;28;20040;-93
2021/11/26 01:01:20;;;;;;;1999.90;999.90;;;;;;;;;;5002695;28;20026;-92
2021/11/26 01:03:52;;;;;;;1999.90;999.90;;;;;;;;;;5002294;28;20059;-91
2021/11/26 01:06:21;;;;;;;1999.90;999.90;;;;;;;;;;5002583;28;20505;-93
2021/11/26 01:08:49;;;;;;;1999.90;999.90;;;;;;;;;;4987114;28;20056;-92
2021/11/26 01:11:15;;;;;;;1999.90;999.90;;;;;;;;;;4983336;28;20408;-92
2021/11/26 01:13:41;;;;;;;1999.90;999.90;;;;;;;;;;4982425;28;20042;-92
2021/11/26 01:16:10;;;;;;;1999.90;999.90;;;;;;;;;;4982696;28;20030;-92
2021/11/26 01:18:37;;;;;;;1999.90;999.90;;;;;;;;;;4994341;28;20037;-93
2021/11/26 01:21:07;;;;;;;1999.90;999.90;;;;;;;;;;5001898;28;20040;-92
2021/11/26 01:23:35;;;;;;;1999.90;999.90;;;;;;;;;;5002139;28;20080;-91
2021/11/26 01:26:04;;;;;;;1999.90;999.90;;;;;;;;;;4986145;28;20496;-91
2021/11/26 01:28:36;;;;;;;1999.90;999.90;;;;;;;;;;5002131;28;20038;-91
2021/11/26 01:31:03;;;;;;;1999.90;999.90;;;;;;;;;;5002315;28;20459;-91
2021/11/26 01:33:31;;;;;;;1999.90;999.90;;;;;;;;;;5002228;28;20428;-91
2021/11/26 01:35:58;;;;;;;1999.90;999.90;;;;;;;;;;5001857;28;20061;-91
2021/11/26 01:38:27;;;;;;;1999.90;999.90;;;;;;;;;;4986270;28;20500;-91
2021/11/26 01:40:59;;;;;;;1999.90;999.90;;;;;;;;;;5001917;28;20403;-92
2021/11/26 01:43:26;;;;;;;1999.90;999.90;;;;;;;;;;5001111;28;20060;-92
2021/11/26 01:46:05;;;;;;;1999.90;999.90;;;;;;;;;;4985874;28;20029;-94
2021/11/26 01:48:38;;;;;;;1999.90;999.90;;;;;;;;;;4987388;28;20120;-94
2021/11/26 01:51:08;;;;;;;1999.90;999.90;;;;;;;;;;5017620;28;20034;-93
2021/11/26 01:53:37;;;;;;;1999.90;999.90;;;;;;;;;;4985305;28;20415;-94
2021/11/26 01:56:04;;;;;;;1999.90;999.90;;;;;;;;;;4982033;28;20147;-94
2021/11/26 01:58:32;;;;;;;1999.90;999.90;;;;;;;;;;4981229;28;20029;-93
2021/11/26 02:01:02;;;;;;;1999.90;999.90;;;;;;;;;;4990349;28;20032;-91
2021/11/26 02:03:29;;;;;;;1999.90;999.90;;;;;;;;;;5001715;28;20049;-93
2021/11/26 02:05:55;;;;;;;1999.90;999.90;;;;;;;;;;5000261;28;20389;-92
2021/11/26 02:08:22;;;;;;;1999.90;999.90;;;;;;;;;;5000958;28;20037;-91
2021/11/26 02:10:48;;;;;;;1999.90;999.90;;;;;;;;;;4984959;28;20033;-91
2021/11/26 02:13:15;;;;;;;1999.90;999.90;;;;;;;;;;5001016;28;20099;-93
2021/11/26 02:15:45;;;;;;;1999.90;999.90;;;;;;;;;;4984883;28;20447;-94
2021/11/26 02:18:14;;;;;;;1999.90;999.90;;;;;;;;;;5001420;28;20068;-92
2021/11/26 02:20:42;;;;;;;1999.90;999.90;;;;;;;;;;4984981;28;20828;-93
2021/11/26 02:23:12;;;;;;;1999.90;999.90;;;;;;;;;;4985386;28;20045;-92
2021/11/26 02:25:40;;;;;;;1999.90;999.90;;;;;;;;;;5000369;28;20045;-94
2021/11/26 02:28:07;;;;;;;1999.90;999.90;;;;;;;;;;5000783;28;20080;-92
2021/11/26 02:30:34;;;;;;;1999.90;999.90;;;;;;;;;;5001178;28;20065;-94
2021/11/26 02:33:05;;;;;;;1999.90;999.90;;;;;;;;;;5000922;28;20056;-92
2021/11/26 02:35:32;;;;;;;1999.90;999.90;;;;;;;;;;5000461;28;20587;-93
2021/11/26 02:38:05;;;;;;;1999.90;999.90;;;;;;;;;;5000790;28;20463;-93
2021/11/26 02:40:36;;;;;;;1999.90;999.90;;;;;;;;;;5000608;28;20029;-93
2021/11/26 02:43:03;;;;;;;1999.90;999.90;;;;;;;;;;5000734;28;20037;-94
2021/11/26 02:45:33;;;;;;;1999.90;999.90;;;;;;;;;;5000533;28;20095;-91
2021/11/26 02:48:10;;;;;;;;;;;;;;;;;;;;;
2021/11/26 02:50:44;;;;;;;1999.90;999.90;;;;;;;;;;4997783;28;20034;-93
2021/11/26 02:53:10;;;;;;;1999.90;999.90;;;;;;;;;;4981203;28;20042;-91
2021/11/26 02:55:37;;;;;;;1999.90;999.90;;;;;;;;;;4980798;28;20033;-92
2021/11/26 02:58:04;;;;;;;1999.90;999.90;;;;;;;;;;4980787;28;20030;-93
2021/11/26 03:00:31;;;;;;;1999.90;999.90;;;;;;;;;;4979657;28;20423;-93
2021/11/26 03:03:00;;;;;;;1999.90;999.90;;;;;;;;;;4980869;28;20034;-92
2021/11/26 03:05:27;;;;;;;1999.90;999.90;;;;;;;;;;5013535;28;20038;-92
2021/11/26 03:07:57;;;;;;;1999.90;999.90;;;;;;;;;;5000266;28;20474;-94
2021/11/26 03:10:26;;;;;;;1999.90;999.90;;;;;;;;;;4983715;28;20037;-94
2021/11/26 03:12:59;;;;;;;1999.90;999.90;;;;;;;;;;4984155;28;20045;-95
2021/11/26 03:15:33;;;;;;;1999.90;999.90;;;;;;;;;;4984274;28;20038;-93
2021/11/26 03:18:18;;;;;;;1999.90;999.90;;;;;;;;;;5017185;28;20127;-93
2021/11/26 03:20:47;;;;;;;1999.90;999.90;;;;;;;;;;5016094;28;20408;-94
2021/11/26 03:23:26;;;;;;;1999.90;999.90;;;;;;;;;;4983969;28;20045;-94
2021/11/26 03:29:31;;;;;;;1999.90;999.90;;;;;;;;;;5032438;28;20446;-96
2021/11/26 03:32:19;;;;;;;1999.90;999.90;;;;;;;;;;4999355;28;20087;-94
2021/11/26 03:34:49;;;;;;;1999.90;999.90;;;;;;;;;;5000468;28;20475;-93
2021/11/26 03:37:34;;;;;;;1999.90;999.90;;;;;;;;;;5016009;28;20053;-95
2021/11/26 03:40:10;;;;;;;1999.90;999.90;;;;;;;;;;4999341;28;20419;-93
2021/11/26 03:42:37;;;;;;;1999.90;999.90;;;;;;;;;;4999848;28;20637;-93
2021/11/26 03:45:07;;;;;;;1999.90;999.90;;;;;;;;;;4999587;28;20046;-94
2021/11/26 03:47:37;;;;;;;1999.90;999.90;;;;;;;;;;4999711;28;20397;-94
2021/11/26 03:50:04;;;;;;;1999.90;999.90;;;;;;;;;;4999185;28;20033;-93
2021/11/26 03:52:32;;;;;;;1999.90;999.90;;;;;;;;;;5015781;28;20503;-92
2021/11/26 03:55:02;;;;;;;1999.90;999.90;;;;;;;;;;4999222;28;20033;-95
2021/11/26 03:57:33;;;;;;;1999.90;999.90;;;;;;;;;;4999708;28;20095;-94
2021/11/26 04:00:06;;;;;;;1999.90;999.90;;;;;;;;;;4999261;28;20088;-96
2021/11/26 04:02:35;;;;;;;1999.90;999.90;;;;;;;;;;4999250;28;20030;-92
2021/11/26 04:05:05;;;;;;;1999.90;999.90;;;;;;;;;;4998990;28;20127;-94
2021/11/26 04:07:33;;;;;;;1999.90;999.90;;;;;;;;;;4996026;28;20098;-94
2021/11/26 04:10:03;;;;;;;1999.90;999.90;;;;;;;;;;4995738;28;20092;-95
2021/11/26 04:12:31;;;;;;;1999.90;999.90;;;;;;;;;;4996097;28;20100;-94
2021/11/26 04:15:06;;;;;;;1999.90;999.90;;;;;;;;;;4995889;28;20041;-94
2021/11/26 04:17:38;;;;;;;1999.90;999.90;;;;;;;;;;4997335;28;20408;-92
2021/11/26 04:20:30;;;;;;;1999.90;999.90;;;;;;;;;;4996525;28;20030;-93
2021/11/26 04:26:24;;;;;;;1999.90;999.90;;;;;;;;;;5003410;28;20475;-95
2021/11/26 04:29:12;;;;;;;1999.90;999.90;;;;;;;;;;5007562;28;20522;-96
2021/11/26 04:31:41;;;;;;;1999.90;999.90;;;;;;;;;;5039555;23;20408;-95
2021/11/26 04:34:15;;;;;;;1999.90;999.90;;;;;;;;;;5003498;28;20057;-93
2021/11/26 04:37:25;;;;;;;1999.90;999.90;;;;;;;;;;4987560;28;20043;-96
2021/11/26 04:40:16;;;;;;;1999.90;999.90;;;;;;;;;;5032147;28;20040;-96
2021/11/26 04:42:47;;;;;;;1999.90;999.90;;;;;;;;;;4980528;28;20060;-94
2021/11/26 04:45:32;;;;;;;1999.90;999.90;;;;;;;;;;4964021;28;20132;-95
2021/11/26 04:48:00;;;;;;;1999.90;999.90;;;;;;;;;;4964575;28;20412;-93
2021/11/26 04:50:28;;;;;;;1999.90;999.90;;;;;;;;;;4963960;28;20421;-93
2021/11/26 04:52:55;;;;;;;1999.90;999.90;;;;;;;;;;4963591;28;20045;-94
2021/11/26 04:55:23;;;;;;;1999.90;999.90;;;;;;;;;;4963994;28;20076;-93
2021/11/26 04:57:50;;;;;;;1999.90;999.90;;;;;;;;;;4964476;28;20401;-93
2021/11/26 05:00:23;;;;;;;1999.90;999.90;;;;;;;;;;4964072;28;20531;-95
2021/11/26 05:02:49;;;;;;;1999.90;999.90;;;;;;;;;;4964044;28;20417;-93
2021/11/26 05:05:16;;;;;;;1999.90;999.90;;;;;;;;;;4962693;28;20416;-95
2021/11/26 05:07:53;;;;;;;1999.90;999.90;;;;;;;;;;4998324;28;20443;-95
2021/11/26 05:10:34;;;;;;;1999.90;999.90;;;;;;;;;;4982324;28;20054;-94
2021/11/26 05:13:40;;;;;;;1999.90;999.90;;;;;;;;;;4989577;28;20176;-93
2021/11/26 05:16:13;;;;;;;1999.90;999.90;;;;;;;;;;5001263;28;20034;-92
2021/11/26 05:18:41;;;;;;;1999.90;999.90;;;;;;;;;;4983850;28;20049;-92
2021/11/26 05:21:09;;;;;;;1999.90;999.90;;;;;;;;;;4966715;28;20424;-93
2021/11/26 05:23:39;;;;;;;1999.90;999.90;;;;;;;;;;4982946;28;20141;-93
2021/11/26 05:26:05;;;;;;;1999.90;999.90;;;;;;;;;;4982887;28;20522;-93
2021/11/26 05:28:49;;;;;;;1999.90;999.90;;;;;;;;;;4982845;28;20029;-94
2021/11/26 05:31:21;;;;;;;1999.90;999.90;;;;;;;;;;4999867;28;20038;-94
2021/11/26 05:33:49;;;;;;;1999.90;999.90;;;;;;;;;;4980926;28;20037;-93
2021/11/26 05:36:27;;;;;;;1999.90;999.90;;;;;;;;;;4966648;28;20045;-93
2021/11/26 05:38:58;;;;;;;1999.90;999.90;;;;;;;;;;4967616;28;20033;-94
2021/11/26 05:41:28;;;;;;;1999.90;999.90;;;;;;;;;;4966414;28;20562;-93
2021/11/26 05:43:55;;;;;;;1999.90;999.90;;;;;;;;;;4966519;28;20451;-93
2021/11/26 05:46:22;;;;;;;1999.90;999.90;;;;;;;;;;4966424;28;20416;-93
2021/11/26 05:48:54;;;;;;;1999.90;999.90;;;;;;;;;;4966152;28;20030;-94
2021/11/26 05:51:20;;;;;;;1999.90;999.90;;;;;;;;;;4998828;28;20038;-91
2021/11/26 05:53:49;;;;;;;1999.90;999.90;;;;;;;;;;4982804;28;20754;-93
2021/11/26 05:56:15;;;;;;;1999.90;999.90;;;;;;;;;;4982613;28;20571;-92
2021/11/26 05:58:44;;;;;;;1999.90;999.90;;;;;;;;;;4982219;28;20033;-90
2021/11/26 06:01:16;;;;;;;1999.90;999.90;;;;;;;;;;4981609;28;20522;-90
2021/11/26 06:03:42;;;;;;;1999.90;999.90;;;;;;;;;;4997701;28;20135;-91
2021/11/26 06:06:10;;;;;;;1999.90;999.90;;;;;;;;;;4981822;28;20073;-91
2021/11/26 06:08:36;;;;;;;1999.90;999.90;;;;;;;;;;4968043;28;20121;-93
2021/11/26 06:11:09;;;;;;;1999.90;999.90;;;;;;;;;;4970287;28;20026;-91
2021/11/26 06:13:34;;;;;;;1999.90;999.90;;;;;;;;;;4981216;28;20381;-91
2021/11/26 06:16:00;;;;;;;1999.90;999.90;;;;;;;;;;4979680;28;20045;-91
2021/11/26 06:18:26;;;;;;;1999.90;999.90;;;;;;;;;;4980225;28;20038;-92
2021/11/26 06:20:52;;;;;;;1999.90;999.90;;;;;;;;;;4981097;28;20080;-92
2021/11/26 06:23:18;;;;;;;1999.90;999.90;;;;;;;;;;4981454;28;20046;-93
2021/11/26 06:25:44;;;;;;;1999.90;999.90;;;;;;;;;;4981472;28;20072;-93
2021/11/26 06:28:10;;;;;;;1999.90;999.90;;;;;;;;;;4981181;28;20065;-93
2021/11/26 06:30:36;;;;;;;1999.90;999.90;;;;;;;;;;4980938;28;20502;-90
2021/11/26 06:33:05;;;;;;;1999.90;999.90;;;;;;;;;;4997054;28;20077;-90
2021/11/26 06:35:30;;;;;;;1999.90;999.90;;;;;;;;;;4981484;28;20033;-89
2021/11/26 06:37:58;;;;;;;1999.90;999.90;;;;;;;;;;4996487;28;20046;-89
2021/11/26 06:40:24;;;;;;;1999.90;999.90;;;;;;;;;;4996509;28;20137;-89
2021/11/26 06:42:52;;;;;;;1999.90;999.90;;;;;;;;;;4981003;28;20125;-89
2021/11/26 06:45:19;;;;;;;1999.90;999.90;;;;;;;;;;4980329;28;20053;-90
2021/11/26 06:47:47;;;;;;;1999.90;999.90;;;;;;;;;;4980805;28;20493;-88
2021/11/26 06:50:16;;;;;;;1999.90;999.90;;;;;;;;;;4981135;28;20080;-89
2021/11/26 06:52:44;;;;;;;1999.90;999.90;;;;;;;;;;4980985;28;20038;-90
2021/11/26 06:55:10;;;;;;;1999.90;999.90;;;;;;;;;;4996939;28;20095;-88
2021/11/26 06:57:36;;;;;;;1999.90;999.90;;;;;;;;;;4980855;28;20042;-88
2021/11/26 07:00:03;;;;;;;1999.90;999.90;;;;;;;;;;4980264;28;20045;-88
2021/11/26 07:02:32;;;;;;;1999.90;999.90;;;;;;;;;;4996673;28;20033;-89
2021/11/26 07:04:59;;;;;;;1999.90;999.90;;;;;;;;;;4980296;28;20036;-88
2021/11/26 07:07:27;;;;;;;1999.90;999.90;;;;;;;;;;4977160;28;20408;-88
2021/11/26 07:09:54;;;;;;;1999.90;999.90;;;;;;;;;;4980208;28;20041;-88
2021/11/26 07:12:20;;;;;;;1999.90;999.90;;;;;;;;;;4980309;28;20044;-89
2021/11/26 07:14:49;;;;;;;1999.90;999.90;;;;;;;;;;4996214;28;20057;-89
2021/11/26 07:17:15;;;;;;;1999.90;999.90;;;;;;;;;;4979853;28;20038;-88
2021/11/26 07:19:47;;;;;;;1999.90;999.90;;;;;;;;;;4980103;28;20037;-90
2021/11/26 07:22:17;;;;;;;1999.90;999.90;;;;;;;;;;4981372;28;20038;-89
2021/11/26 07:24:46;;;;;;;1999.90;999.90;;;;;;;;;;4980854;28;20515;-90
2021/11/26 07:27:14;;;;;;;1999.90;999.90;;;;;;;;;;4980239;28;20093;-93
2021/11/26 07:29:42;;;;;;;1999.90;999.90;;;;;;;;;;4996253;28;20038;-92
2021/11/26 07:32:11;;;;;;;1999.90;999.90;;;;;;;;;;4979673;28;20045;-90
2021/11/26 07:34:40;;;;;;;1999.90;999.90;;;;;;;;;;4995909;28;20026;-94
2021/11/26 07:37:12;;;;;;;1999.90;999.90;;;;;;;;;;4996376;28;20049;-94
2021/11/26 07:39:48;;;;;;;1999.90;999.90;;;;;;;;;;4964554;28;20038;-96
2021/11/26 07:43:01;;;;;;;1999.90;999.90;;;;;;;;;;4982423;28;20046;-94
2021/11/26 07:45:27;;;;;;;1999.90;999.90;;;;;;;;;;4996198;28;20022;-94
2021/11/26 07:47:56;;;;;;;1999.90;999.90;;;;;;;;;;4980964;28;20045;-92
2021/11/26 07:50:25;;;;;;;1999.90;999.90;;;;;;;;;;4980204;28;20037;-95
2021/11/26 07:52:57;;;;;;;1999.90;999.90;;;;;;;;;;4979949;28;20116;-95
2021/11/26 07:55:27;;;;;;;;;;;;;;;;;;4980138;28;20498;-92
2021/11/26 07:57:56;;;;;;;1999.90;999.90;;;;;;;;;;5011806;28;19909;-94
2021/11/26 08:00:26;;;;;;;1999.90;999.90;;;;;;;;;;4979690;28;20045;-93
2021/11/26 08:02:57;;;;;;;1999.90;999.90;;;;;;;;;;4980121;28;20487;-92
2021/11/26 08:05:32;;;;;;;1999.90;999.90;;;;;;;;;;4980725;28;20492;-94
2021/11/26 08:08:01;;;;;;;1999.90;999.90;;;;;;;;;;4977534;28;20049;-94
2021/11/26 08:10:28;;;;;;;1999.90;999.90;;;;;;;;;;4976237;28;20034;-90
2021/11/26 08:12:57;;;;;;;1999.90;999.90;;;;;;;;;;4980330;28;20041;-93
2021/11/26 08:15:30;;;;;;;1999.90;999.90;;;;;;;;;;4979982;28;20030;-92
2021/11/26 08:18:00;;;;;;;1999.90;999.90;;;;;;;;;;4980651;28;20132;-95
2021/11/26 08:20:27;;;;;;;1999.90;999.90;;;;;;;;;;4963925;28;20042;-94
2021/11/26 08:22:56;;;;;;;1999.90;999.90;;;;;;;;;;4979794;28;20045;-93
2021/11/26 08:25:47;;;;;;;1999.90;999.90;;;;;;;;;;4963511;28;20408;-93
2021/11/26 08:28:14;;;;;;;1999.90;999.90;;;;;;;;;;4979006;28;20030;-85
2021/11/26 08:30:40;;;;;;;1999.90;999.90;;;;;;;;;;4994567;28;20038;-85
2021/11/26 08:33:07;;;;;;;1999.90;999.90;;;;;;;;;;4991220;28;20194;-86
2021/11/26 08:35:34;;;;;;;1999.90;999.90;;;;;;;;;;4994930;28;20515;-88
2021/11/26 08:38:00;;;;;;;1999.90;999.90;;;;;;;;;;4964716;28;20117;-92
2021/11/26 08:40:28;;;;;;;1999.90;999.90;;;;;;;;;;4960321;28;20027;-91
2021/11/26 08:42:58;;;;;;;1999.90;999.90;;;;;;;;;;4943913;28;20027;-91
2021/11/26 08:45:24;;;;;;;1999.90;999.90;;;;;;;;;;4960015;28;20178;-90
2021/11/26 08:47:53;;;;;;;1999.90;999.90;;;;;;;;;;4944340;28;20045;-89
2021/11/26 08:50:20;;;;;;;1999.90;999.90;;;;;;;;;;4976107;28;20035;-90
2021/11/26 08:52:49;;;;;;;1999.90;999.90;;;;;;;;;;4944344;28;20495;-90
2021/11/26 08:55:18;;;;;;;1999.90;999.90;;;;;;;;;;4959997;28;20568;-92
2021/11/26 08:57:53;;;;;;;1999.90;999.90;;;;;;;;;;4943904;28;20138;-90
2021/11/26 09:00:25;;;;;;;1999.90;999.90;;;;;;;;;;4946650;28;20064;-92
2021/11/26 09:02:52;;;;;;;1999.90;999.90;;;;;;;;;;4959655;28;20042;-91
2021/11/26 09:05:18;;;;;;;1999.90;999.90;;;;;;;;;;4975456;28;20030;-94
2021/11/26 09:07:48;;;;;;;1999.90;999.90;;;;;;;;;;4972295;28;20062;-92
2021/11/26 09:10:16;;;;;;;1999.90;999.90;;;;;;;;;;4947267;28;20105;-92
2021/11/26 09:12:45;;;;;;;1999.90;999.90;;;;;;;;;;4963479;28;20463;-92
2021/11/26 09:15:12;;;;;;;1999.90;999.90;;;;;;;;;;4963516;28;20543;-90
2021/11/26 09:17:42;;;;;;;1999.90;999.90;;;;;;;;;;4963884;28;20129;-91
2021/11/26 09:20:11;;;;;;;1999.90;999.90;;;;;;;;;;4963613;28;20042;-91
2021/11/26 09:22:40;;;;;;;1999.90;999.90;;;;;;;;;;4963268;28;20085;-92
2021/11/26 09:25:09;;;;;;;1999.90;999.90;;;;;;;;;;4963644;28;20117;-88
2021/11/26 09:27:35;;;;;;;1999.90;999.90;;;;;;;;;;4963213;28;20085;-91
2021/11/26 09:30:02;;;;;;;1999.90;999.90;;;;;;;;;;4962991;28;20516;-91
2021/11/26 09:32:29;;;;;;;1999.90;999.90;;;;;;;;;;4963124;28;20468;-93
2021/11/26 09:34:55;;;;;;;1999.90;999.90;;;;;;;;;;4963196;28;20501;-90
2021/11/26 09:37:23;;;;;;;1999.90;999.90;;;;;;;;;;4978977;28;20043;-93
2021/11/26 09:39:50;;;;;;;1999.90;999.90;;;;;;;;;;4963142;28;20030;-89
2021/11/26 09:42:20;;;;;;;1999.90;999.90;;;;;;;;;;4962857;28;20477;-92
2021/11/26 09:44:49;;;;;;;1645.35;759.33;;;;;;;;;;4966823;28;20377;-92
2021/11/26 09:47:17;;;;;;;1999.90;999.90;;;;;;;;;;4998276;28;20037;-90
2021/11/26 09:49:44;;;;;;;1999.90;999.90;;;;;;;;;;4981861;28;20087;-92
2021/11/26 09:52:19;;;;;;;1999.90;999.90;;;;;;;;;;4996617;28;20076;-94
2021/11/26 09:54:48;;;;;;;1999.90;999.90;;;;;;;;;;4996167;28;20708;-93
2021/11/26 09:57:23;;;;;;;1999.90;999.90;;;;;;;;;;4982155;28;20041;-93
2021/11/26 09:59:52;;;;;;;1999.90;999.90;;;;;;;;;;4982443;28;20512;-92
2021/11/26 10:02:49;;;;;;;1999.90;999.90;;;;;;;;;;4962654;28;20405;-93
2021/11/26 10:05:17;;;;;;;1999.90;999.90;;;;;;;;;;4961886;28;20500;-94
2021/11/26 10:07:55;;;;;;;1999.90;999.90;;;;;;;;;;4949776;28;20381;-94
2021/11/26 10:10:33;;;;;;;1999.90;999.90;;;;;;;;;;4980794;28;20438;-95
2021/11/26 10:13:13;;;;;;;1999.90;999.90;;;;;;;;;;4997470;28;20045;-94
2021/11/26 10:15:44;;;;;;;1999.90;999.90;;;;;;;;;;4983030;28;20120;-96
2021/11/26 10:18:55;;;;;;;1999.90;999.90;;;;;;;;;;4982184;28;20045;-92
2021/11/26 10:21:28;;;;;;;1999.90;999.90;;;;;;;;;;5012552;28;20515;-95
2021/11/26 10:24:00;;;;;;;1999.90;999.90;;;;;;;;;;4963358;28;20030;-96
2021/11/26 10:26:40;;;;;;;1999.90;999.90;;;;;;;;;;4999508;28;20045;-96
2021/11/26 10:29:07;;;;;;;1999.90;999.90;;;;;;;;;;4965994;28;20037;-93
2021/11/26 10:32:02;;;;;;;1999.90;999.90;;;;;;;;;;4963928;28;20125;-95
2021/11/26 10:34:43;;;;;;;1999.90;999.90;;;;;;;;;;4993397;28;20133;-96
2021/11/26 10:37:30;;;;;;;1999.90;999.90;;;;;;;;;;4968884;28;20038;-94
2021/11/26 10:40:01;;;;;;;1999.90;999.90;;;;;;;;;;4993080;28;20041;-93
2021/11/26 10:42:30;;;;;;;1999.90;999.90;;;;;;;;;;4996907;28;20389;-88
2021/11/26 10:45:01;;;;;;;1999.90;999.90;;;;;;;;;;4980954;28;20481;-89
2021/11/26 10:47:42;;;;;;;1999.90;999.90;;;;;;;;;;4980040;28;20034;-87
2021/11/26 10:58:49;;;;;;;1999.90;999.90;;;;;;;;;;4999220;28;20077;-88
2021/11/26 11:01:14;;;;;;;1999.90;999.90;;;;;;;;;;4972924;28;20475;-89
2021/11/26 11:03:41;;;;;;;1999.90;999.90;;;;;;;;;;4977278;28;20081;-89
2021/11/26 11:06:22;;;;;;;1999.90;999.90;;;;;;;;;;4956573;28;20049;-89
2021/11/26 11:09:08;;;;;;;1384.28;541.25;;;;;;;;;;4964866;28;20057;-88
2021/11/26 11:11:53;;;;;;;1999.90;999.90;;;;;;;;;;4961315;28;20042;-89
2021/11/26 11:14:21;;;;;;;1999.90;999.90;;;;;;;;;;4962787;28;20061;-89
2021/11/26 11:16:54;;;;;;;1999.90;999.90;;;;;;;;;;4996305;28;20472;-88
2021/11/26 11:19:22;;;;;;;1999.90;999.90;;;;;;;;;;4979699;28;20412;-89
2021/11/26 11:21:50;;;;;;;1999.90;999.90;;;;;;;;;;4980474;28;20029;-89
2021/11/26 11:24:19;;;;;;;1999.90;999.90;;;;;;;;;;4980023;28;20518;-89
2021/11/26 11:26:47;;;;;;;1999.90;999.90;;;;;;;;;;4980623;28;20073;-89
2021/11/26 11:29:14;;;;;;;1999.90;999.90;;;;;;;;;;4979848;28;20042;-88
2021/11/26 11:31:42;;;;;;;1999.90;999.90;;;;;;;;;;4979836;28;20033;-89
2021/11/26 11:34:09;;;;;;;1999.90;999.90;;;;;;;;;;4978922;28;20033;-90
2021/11/26 11:36:38;;;;;;;1999.90;999.90;;;;;;;;;;4961018;28;20077;-89
2021/11/26 11:39:05;;;;;;;1999.90;999.90;;;;;;;;;;4960804;28;20085;-89
2021/11/26 11:41:56;;;;;;;1999.90;999.90;;;;;;;;;;4971422;28;20042;-88
2021/11/26 11:44:29;;;;;;;1999.90;999.90;;;;;;;;;;4983091;28;20050;-89
2021/11/26 11:46:57;;;;;;;1999.90;999.90;;;;;;;;;;4976825;28;20037;-88
2021/11/26 11:49:28;;;;;;;1999.90;999.90;;;;;;;;;;4993523;28;20496;-89
2021/11/26 11:52:03;;;;;;;1999.90;999.90;;;;;;;;;;4996065;28;20030;-89
2021/11/26 11:54:38;;;;;;;1999.90;999.90;;;;;;;;;;4979835;28;20489;-89
2021/11/26 11:57:26;;;;;;;1999.90;999.90;;;;;;;;;;4979922;28;20500;-89
2021/11/26 12:00:17;;;;;;;1999.90;999.90;;;;;;;;;;4979813;28;20571;-89
2021/11/26 12:02:44;;;;;;;1999.90;999.90;;;;;;;;;;4976504;28;20038;-89
2021/11/26 12:05:25;;;;;;;1999.90;999.90;;;;;;;;;;4960064;28;20061;-89
2021/11/26 12:08:13;;;;;;;1999.90;999.90;;;;;;;;;;4968426;28;20113;-89
2021/11/26 12:10:45;;;;;;;1999.90;999.90;;;;;;;;;;4995652;28;20566;-88
2021/11/26 12:13:27;;;;;;;1999.90;999.90;;;;;;;;;;4979985;28;20053;-88
2021/11/26 12:16:06;;;;;;;1999.90;999.90;;;;;;;;;;4974702;28;20067;-89
2021/11/26 12:18:50;;;;;;;1999.90;999.90;;;;;;;;;;4976263;28;20057;-88
2021/11/26 12:21:21;;;;;;;1277.53;102.95;;;;;;;;;;4975901;28;20501;-87
2021/11/26 12:24:12;;;;;;;1999.90;999.90;;;;;;;;;;4977464;28;20026;-89
2021/11/26 12:26:49;;;;;;;1779.75;573.55;;;;;;;;;;4963124;28;20035;-88
2021/11/26 12:29:20;;;;;;;1999.90;646.60;;;;;;;;;;4961964;28;20507;-88
2021/11/26 12:31:47;;;;;;;1999.90;676.13;;;;;;;;;;4960417;28;20046;-89
2021/11/26 12:34:19;;;;;;;1966.03;472.45;;;;;;;;;;4963820;28;20035;-87
2021/11/26 12:36:51;;;;;;;1998.93;251.63;;;;;;;;;;4968315;28;20574;-86
2021/11/26 12:39:22;;;;;;;1999.90;999.90;;;;;;;;;;4974262;28;20042;-82
2021/11/26 12:41:50;;;;;;;1999.90;999.90;;;;;;;;;;4959191;28;20035;-82
2021/11/26 12:44:19;;;;;;;1999.90;999.90;;;;;;;;;;4986730;28;20042;-82
2021/11/26 12:46:44;;;;;;;1765.60;239.35;;;;;;;;;;4977359;28;20082;-82
2021/11/26 12:52:12;;;;;;;1999.90;999.90;;;;;;;;;;4981164;28;20060;-84
2021/11/26 12:54:45;;;;;;;1999.90;232.40;;;;;;;;;;4999514;28;20030;-84
2021/11/26 12:57:24;;;;;;;1999.90;274.92;;;;;;;;;;4966172;28;20042;-86
2021/11/26 13:00:01;;;;;;;1850.60;373.27;;;;;;;;;;4967513;28;20463;-86
2021/11/26 13:02:34;;;;;;;1909.55;802.60;;;;;;;;;;4962399;28;20038;-85
2021/11/26 13:05:21;;;;;;;1999.90;275.75;;;;;;;;;;4962392;28;20390;-84
2021/11/26 13:07:47;;;;;;;1974.70;802.47;;;;;;;;;;4969160;28;20033;-85
2021/11/26 13:10:15;;;;;;;1303.35;254.73;;;;;;;;;;4981384;28;20587;-84
2021/11/26 13:12:49;;;;;;;1793.65;234.30;;;;;;;;;;4978862;28;20121;-86
2021/11/26 13:15:21;;;;;;;1909.88;306.63;;;;;;;;;;5013487;28;20492;-85
2021/11/26 13:17:50;;;;;;;1512.05;120.78;;;;;;;;;;5012731;28;20100;-89
2021/11/26 13:20:20;;;;;;;1947.70;804.15;;;;;;;;;;4981894;28;20037;-84
2021/11/26 13:22:49;;;;;;;1857.28;790.80;;;;;;;;;;4981522;28;20034;-90
2021/11/26 13:25:22;;;;;;;1987.22;242.23;;;;;;;;;;4997799;28;20030;-87
2021/11/26 13:27:48;;;;;;;;;;;;;;;;;;4981955;28;20080;-84
2021/11/26 13:30:19;;;;;;;1999.90;999.90;;;;;;;;;;4997291;28;20290;-84
2021/11/26 13:32:44;;;;;;;1999.90;999.90;;;;;;;;;;4977398;28;20121;-85
2021/11/26 13:35:10;;;;;;;1999.90;999.90;;;;;;;;;;4980780;28;20046;-85
2021/11/26 13:37:36;;;;;;;1912.20;205.38;;;;;;;;;;4980949;28;20153;-86
2021/11/26 13:40:01;;;;;;;1649.00;231.05;;;;;;;;;;4980518;28;20037;-84
2021/11/26 13:42:28;;;;;;;1610.68;178.20;;;;;;;;;;4972339;28;20054;-84
2021/11/26 13:44:54;;;;;;;1999.90;646.33;;;;;;;;;;4945150;28;20042;-82
2021/11/26 13:47:21;;;;;;;1999.90;270.52;;;;;;;;;;4976372;28;20091;-84
2021/11/26 13:49:47;;;;;;;1989.18;792.65;;;;;;;;;;5013219;28;20046;-82
2021/11/26 13:52:13;;;;;;;1623.05;400.75;;;;;;;;;;5013337;28;20153;-83
2021/11/26 13:54:40;;;;;;;1978.97;186.13;;;;;;;;;;5011681;28;20038;-82
2021/11/26 13:57:05;;;;;;;1874.85;262.65;;;;;;;;;;4980424;28;20030;-84
2021/11/26 13:59:32;;;;;;;1999.90;689.17;;;;;;;;;;4960906;28;20042;-84
2021/11/26 14:02:06;;;;;;;1694.43;271.27;;;;;;;;;;4979683;28;20033;-84
2021/11/26 14:04:31;;;;;;;1999.90;637.25;;;;;;;;;;4967669;28;20050;-84
2021/11/26 14:06:59;;;;;;;1999.90;311.77;;;;;;;;;;4961643;28;20030;-84
2021/11/26 14:09:25;;;;;;;1554.68;188.70;;;;;;;;;;4980647;28;20042;-83
2021/11/26 14:11:51;;;;;;;1999.90;710.42;;;;;;;;;;4979717;28;20526;-84
2021/11/26 14:14:26;;;;;;;1927.07;316.15;;;;;;;;;;4963602;28;20041;-81
2021/11/26 14:16:59;;;;;;;1531.65;170.18;;;;;;;;;;4978386;28;20034;-84
2021/11/26 14:19:25;;;;;;;1970.30;826.65;;;;;;;;;;4961270;28;20039;-84
2021/11/26 14:21:54;;;;;;;1524.63;217.52;;;;;;;;;;4985377;28;20109;-84